< < Back
Terminal Aerodrome Forecast


Current Version              Previous Versions:   1  2  3  4  5  6  7  8  9  

Terminal Aerodrome Forecast

651
FTUS42 KTAE 301126
TAFTLH
TAF
KTLH 301126Z 3012/0112 13003KT 4SM BR SCT001
      TEMPO 3012/3014 3/4SM BR BKN002
     FM301400 14007KT P6SM SCT030
     FM301900 18008KT P6SM SCT050
     FM010200 18003KT P6SM SCT250=



Latest METAR

709
SAUS80 KWBC 301500
MTRTLH
METAR KTLH 301453Z 16007KT 110V190 10SM FEW020 OVC250 28/20 A2996 RMK
AO2 SLP144 T02830200 53006


USA.gov is the U.S. government's official web portal to all federal, state and local government web resources and services.